KHBG

Details ICAO KHBG (HBG)
Name BOBBY L CHAIN MUNI
Region United States
Timezone America/Chicago (UTC-6.0)
Plans Departing 5
Arriving 3
Stats Elevation 151 ft / 46 m (AMSL)
Location 31.264948° -89.252897°
Runways 1
Magnetic Variation 1.511° W
Sunrise 2017-12-12 12:47:58 UTC / 2017-12-12 06:47:58 Local
Sunset 2017-12-12 22:56:36 UTC / 2017-12-12 16:56:36 Local
Advertisement - Login to hide

Runways

ID Width Length Bearing (true) Bearing (mag) Surface Threshold Offset Overrun Length
13 150 ft / 46 m 6,096 ft / 1,858 m 131.13° 132.64° Asphalt 996 ft / 304 m 0 ft / 0 m
31 150 ft / 46 m 6,096 ft / 1,858 m 311.13° 312.64° Asphalt 0 ft / 0 m 0 ft / 0 m

Map

Weather


0- 5 10 15 20 25 30 35+ Temperature / ° C

Clouds and Precipitation
Forecast for 2017-12-13 00:00 UTC. Updated 36 minutes ago

Ground ~20,000 ft ~40,000 ft Winds

METAR

KHBG 121853Z AUTO 33011G21KT 10SM CLR 14/01 A3012 RMK AO2 SLP199 T01440011

TAF

TAF KHBG 121739Z 1218/1318 34010G19KT P6SM SKC FM122300 32006KT P6SM SKC

Frequencies

Recorded 135.42 MHz ASOS
Unicom 122.80 MHz CTAF/UNICOM
Warning: Do not use this data for real-world aviation or navigation. No guarantee of current accuracy is given.